This is the latest recevied weather packets stored in our database for station/object K3MV-13. If no packets are shown the sender has not sent any weather packets the latest 10 day(s).
| Time | Temp. | Humidity | Pressure | Rain* | Wind** | Luminosity | Snow |
|---|---|---|---|---|---|---|---|
| 1777688017 | 5° C | 91% | 1013.9 hPa | 0 mm | - | 0 W/m² | - |
| 1777687715 | 5° C | 92% | 1014 hPa | 0 mm | - | 0 W/m² | - |
| 1777674381 | 8.89° C | 71% | 1011.6 hPa | 0 mm | - | 64 W/m² | - |
| 1777673775 | 10° C | 61% | 1011.2 hPa | 0 mm | - | 84 W/m² | - |
| 1777673171 | 10° C | 59% | 1011 hPa | 0 mm | - | 74 W/m² | - |
| 1777672564 | 10.56° C | 56% | 1011 hPa | 0 mm | - | 67 W/m² | - |
| 1777671954 | 11.11° C | 56% | 1010.9 hPa | 0 mm | - | 104 W/m² | - |
| 1777671650 | 11.11° C | 54% | 1010.6 hPa | 0 mm | - | 105 W/m² | - |
| 1777671347 | 11.11° C | 55% | 1010.5 hPa | 0 mm | - | 116 W/m² | - |
| 1777671043 | 11.11° C | 54% | 1010.9 hPa | 0 mm | - | 136 W/m² | - |
| 1777670740 | 11.67° C | 52% | 1010.6 hPa | 0 mm | - | 116 W/m² | - |
| 1777670437 | 11.67° C | 50% | 1010.7 hPa | 0 mm | - | 185 W/m² | - |
| 1777670133 | 11.67° C | 52% | 1010.6 hPa | 0 mm | - | 98 W/m² | - |
| 1777669832 | 11.67° C | 50% | 1010.4 hPa | 0 mm | - | 107 W/m² | - |
| 1777669527 | 11.67° C | 51% | 1010.5 hPa | 0 mm | - | 126 W/m² | - |
| 1777669227 | 11.67° C | 48% | 1010.2 hPa | 0 mm | - | 154 W/m² | - |
| 1777668921 | 11.67° C | 48% | 1010.3 hPa | 0 mm | - | 70 W/m² | - |
| 1777667708 | 12.78° C | 42% | 1010.4 hPa | 0 mm | - | 73 W/m² | - |
| 1777667406 | 12.78° C | 44% | 1010.2 hPa | 0 mm | - | 124 W/m² | - |
| 1777667102 | 12.78° C | 45% | 1010 hPa | 0 mm | - | 74 W/m² | - |
| 1777666193 | 13.33° C | 40% | 1010.1 hPa | 0 mm | - | 96 W/m² | - |
| 1777665587 | 13.33° C | 41% | 1010.2 hPa | 0 mm | - | 144 W/m² | - |
| 1777664070 | 12.78° C | 40% | 1010.4 hPa | 0 mm | - | 168 W/m² | - |
| 1777662252 | 13.33° C | 39% | 1010.7 hPa | 0 mm | - | 128 W/m² | - |
| 1777661952 | 13.33° C | 39% | 1010.4 hPa | 0 mm | - | 156 W/m² | - |
* Rain latest hour (hover to see other rain measurements)
** Current wind speed in m/s (hover to see current wind gust speed)